createdAt,value
2019-04-21T00:00:35.336Z,308.90
2019-04-21T00:01:39.866Z,308.97
2019-04-21T00:02:37.749Z,308.41
2019-04-21T00:03:42.285Z,309.02
2019-04-21T00:04:46.545Z,308.48
2019-04-21T00:05:52.976Z,308.37
2019-04-21T00:07:01.275Z,307.79
2019-04-21T00:07:54.317Z,308.61
2019-04-21T00:09:00.882Z,308.39
2019-04-21T00:10:57.836Z,308.76
2019-04-21T00:11:55.674Z,308.27
2019-04-21T00:12:52.323Z,309.22
2019-04-21T00:13:47.030Z,308.79
2019-04-21T00:14:45.032Z,308.70
2019-04-21T00:15:42.279Z,308.18
2019-04-21T00:16:44.144Z,308.63
2019-04-21T00:17:35.078Z,309.16
2019-04-21T00:18:40.691Z,308.70
2019-04-21T00:19:37.062Z,308.09
2019-04-21T00:20:39.636Z,308.81
2019-04-21T00:21:40.490Z,308.70
2019-04-21T00:22:44.337Z,308.57
2019-04-21T00:23:53.842Z,308.58
2019-04-21T00:25:46.140Z,309.12
2019-04-21T00:26:53.147Z,308.39
2019-04-21T00:27:55.224Z,308.61
2019-04-21T00:28:59.412Z,308.60
2019-04-21T00:29:56.671Z,308.97
2019-04-21T00:30:50.877Z,308.20
2019-04-21T00:31:45.557Z,308.60
2019-04-21T00:32:46.049Z,308.63
2019-04-21T00:33:39.174Z,308.34
2019-04-21T00:34:34.286Z,308.88
2019-04-21T00:35:41.456Z,308.60
2019-04-21T00:36:47.549Z,308.76
2019-04-21T00:37:53.174Z,309.17
2019-04-21T00:39:09.542Z,308.72
2019-04-21T00:40:02.172Z,309.00
2019-04-21T00:40:56.714Z,308.53
2019-04-21T00:41:53.747Z,308.72
2019-04-21T00:42:48.754Z,308.31
2019-04-21T00:43:49.403Z,308.96
2019-04-21T00:44:54.240Z,308.56
2019-04-21T00:45:44.876Z,308.29
2019-04-21T00:46:47.239Z,308.03
2019-04-21T00:47:51.137Z,309.17
2019-04-21T00:48:53.571Z,308.45
2019-04-21T00:49:56.522Z,308.70
2019-04-21T00:51:10.623Z,307.99
2019-04-21T00:52:07.240Z,308.54
2019-04-21T00:53:00.451Z,308.47
2019-04-21T00:55:10.960Z,308.27
2019-04-21T00:55:59.704Z,308.71
2019-04-21T00:56:56.259Z,308.44
2019-04-21T00:57:57.195Z,308.89
2019-04-21T00:58:59.835Z,309.40
2019-04-21T00:59:52.175Z,308.92
2019-04-21T01:01:00.439Z,309.32
2019-04-21T01:01:55.502Z,308.76
2019-04-21T01:02:56.167Z,308.90
2019-04-21T01:03:57.729Z,308.56
2019-04-21T01:05:00.048Z,308.68
2019-04-21T01:06:14.365Z,308.84
2019-04-21T01:06:57.626Z,309.57
2019-04-21T01:07:54.653Z,309.03
2019-04-21T01:08:55.073Z,308.65
2019-04-21T01:09:50.929Z,308.66
2019-04-21T01:10:47.365Z,308.98
2019-04-21T01:11:55.295Z,308.98
2019-04-21T01:12:54.703Z,309.03
2019-04-21T01:13:58.001Z,308.59
2019-04-21T01:14:58.161Z,309.19
2019-04-21T01:15:52.790Z,308.99
2019-04-21T01:16:57.637Z,308.60
2019-04-21T01:17:52.175Z,309.72
2019-04-21T01:18:54.574Z,309.07
2019-04-21T01:19:50.642Z,308.90
2019-04-21T01:20:33.164Z,308.94
2019-04-21T01:21:32.145Z,309.04
2019-04-21T01:22:32.101Z,308.79
2019-04-21T01:23:32.108Z,309.11
2019-04-21T01:24:36.177Z,308.95
2019-04-21T01:25:38.191Z,309.02
2019-04-21T01:26:43.786Z,309.55
2019-04-21T01:27:53.846Z,309.02
2019-04-21T01:28:54.449Z,308.59
2019-04-21T01:29:58.761Z,308.73
2019-04-21T01:30:53.558Z,309.40
2019-04-21T01:31:48.237Z,308.64
2019-04-21T01:32:53.215Z,309.36
2019-04-21T01:33:57.482Z,309.34
2019-04-21T01:34:53.255Z,309.01
2019-04-21T01:35:54.911Z,309.32
2019-04-21T01:36:52.925Z,308.81
2019-04-21T01:37:57.764Z,309.19
2019-04-21T01:38:58.288Z,308.82
2019-04-21T01:39:54.505Z,308.15
2019-04-21T01:40:57.124Z,309.86
2019-04-21T01:41:57.230Z,308.76
2019-04-21T01:42:51.414Z,309.41
2019-04-21T01:43:50.343Z,308.41
2019-04-21T01:44:53.475Z,308.47
2019-04-21T01:45:48.765Z,309.05
2019-04-21T01:46:49.046Z,309.00
2019-04-21T01:47:52.178Z,308.66
2019-04-21T01:48:49.398Z,308.91
2019-04-21T01:49:45.353Z,308.80
2019-04-21T01:50:51.268Z,308.99
2019-04-21T01:52:03.121Z,308.64
2019-04-21T01:52:56.005Z,309.48
2019-04-21T01:53:55.135Z,309.33
2019-04-21T01:54:55.130Z,308.91
2019-04-21T01:55:58.742Z,309.56
2019-04-21T01:56:51.238Z,309.27
2019-04-21T01:57:52.158Z,309.67
2019-04-21T01:58:44.348Z,309.28
2019-04-21T01:59:48.773Z,308.90
2019-04-21T02:00:48.255Z,309.64
2019-04-21T02:01:52.335Z,309.91
2019-04-21T02:02:59.279Z,309.49
2019-04-21T02:04:57.581Z,309.30
2019-04-21T02:06:00.020Z,309.50
2019-04-21T02:06:57.297Z,309.23
2019-04-21T02:08:51.455Z,309.00
2019-04-21T02:09:59.292Z,309.60
2019-04-21T02:10:56.048Z,308.77
2019-04-21T02:11:56.368Z,309.50
2019-04-21T02:12:52.459Z,308.92
2019-04-21T02:13:57.192Z,309.54
2019-04-21T02:15:00.430Z,308.85
2019-04-21T02:15:55.547Z,309.17
2019-04-21T02:16:52.106Z,310.24
2019-04-21T02:17:53.783Z,308.74
2019-04-21T02:18:52.968Z,309.38
2019-04-21T02:19:51.457Z,309.19
2019-04-21T02:20:41.007Z,308.93
2019-04-21T02:21:48.843Z,309.07
2019-04-21T02:23:10.015Z,310.24
2019-04-21T02:23:58.688Z,309.70
2019-04-21T02:24:57.771Z,309.46
2019-04-21T02:25:58.786Z,309.18
2019-04-21T02:26:57.314Z,309.53
2019-04-21T02:27:59.492Z,309.09
2019-04-21T02:29:01.845Z,309.73
2019-04-21T02:29:55.929Z,309.54
2019-04-21T02:32:14.282Z,308.91
2019-04-21T02:33:13.735Z,309.58
2019-04-21T02:34:04.524Z,309.48
2019-04-21T02:36:17.073Z,309.45
2019-04-21T02:37:17.641Z,309.37
2019-04-21T02:38:11.970Z,310.44
2019-04-21T02:39:15.886Z,309.30
2019-04-21T02:40:57.916Z,309.20
2019-04-21T02:42:02.896Z,309.45
2019-04-21T02:43:05.674Z,309.98
2019-04-21T02:44:08.627Z,309.12
2019-04-21T02:45:00.341Z,309.71
2019-04-21T02:46:04.792Z,308.96
2019-04-21T02:47:14.254Z,310.20
2019-04-21T02:48:08.883Z,309.66
2019-04-21T02:49:05.637Z,309.51
2019-04-21T02:50:09.916Z,310.21
2019-04-21T02:50:57.727Z,310.32
2019-04-21T02:52:27.461Z,309.71
2019-04-21T02:53:05.509Z,309.97
2019-04-21T02:54:35.925Z,310.04
2019-04-21T02:55:02.727Z,310.27
2019-04-21T02:56:05.711Z,310.28
2019-04-21T02:58:06.221Z,310.27
2019-04-21T02:59:05.309Z,309.92
2019-04-21T03:00:06.433Z,310.30
2019-04-21T03:01:10.043Z,309.85
2019-04-21T03:04:06.242Z,309.64
2019-04-21T03:05:02.147Z,309.49
2019-04-21T03:06:15.387Z,310.12
2019-04-21T03:07:09.707Z,309.92
2019-04-21T03:08:05.624Z,310.44
2019-04-21T03:10:00.111Z,309.96
2019-04-21T03:11:09.086Z,309.86
2019-04-21T03:13:08.941Z,310.10
2019-04-21T03:14:11.061Z,309.76
2019-04-21T03:15:04.345Z,309.23
2019-04-21T03:16:09.493Z,310.14
2019-04-21T03:17:09.632Z,309.75
2019-04-21T03:18:09.742Z,309.58
2019-04-21T03:20:02.899Z,309.69
2019-04-21T03:22:05.170Z,309.99
2019-04-21T03:23:07.817Z,309.99
2019-04-21T03:24:05.856Z,310.49
2019-04-21T03:26:16.490Z,309.64
2019-04-21T03:29:05.830Z,309.90
2019-04-21T03:36:38.386Z,309.09
2019-04-21T03:38:06.194Z,309.78
2019-04-21T03:39:04.662Z,310.33
2019-04-21T03:40:03.264Z,309.66
2019-04-21T03:41:08.588Z,309.54
2019-04-21T03:42:07.352Z,309.55
2019-04-21T03:43:04.442Z,309.90
2019-04-21T03:44:12.344Z,309.96
2019-04-21T03:45:25.347Z,310.02
2019-04-21T03:46:01.258Z,309.54
2019-04-21T03:47:08.353Z,309.95
2019-04-21T03:48:04.723Z,309.84
2019-04-21T03:51:04.388Z,310.34
2019-04-21T03:52:11.118Z,310.13
2019-04-21T03:53:03.469Z,309.82
2019-04-21T03:53:59.980Z,309.86
2019-04-21T03:55:12.544Z,310.02
2019-04-21T03:57:19.965Z,310.60
2019-04-21T03:58:16.962Z,309.22
2019-04-21T04:00:18.126Z,310.19
2019-04-21T04:03:35.287Z,309.43
2019-04-21T04:05:05.726Z,309.72
2019-04-21T04:06:08.024Z,309.95
2019-04-21T04:07:19.092Z,309.54
2019-04-21T04:08:07.618Z,310.15
2019-04-21T04:09:14.431Z,310.04
2019-04-21T04:10:08.305Z,310.56
2019-04-21T04:11:58.321Z,310.15
2019-04-21T04:13:07.285Z,309.97
2019-04-21T04:14:20.268Z,310.10
2019-04-21T04:15:00.644Z,309.93
2019-04-21T04:17:14.657Z,309.98
2019-04-21T04:18:03.793Z,309.72
2019-04-21T04:18:59.117Z,309.25
2019-04-21T04:20:05.365Z,310.36
2019-04-21T04:21:16.859Z,310.80
2019-04-21T04:22:04.040Z,310.30
2019-04-21T04:23:03.002Z,310.05
2019-04-21T04:25:04.603Z,310.26
2019-04-21T04:26:16.964Z,310.44
2019-04-21T04:27:12.731Z,310.67
2019-04-21T04:30:08.090Z,310.70
2019-04-21T04:31:05.107Z,310.98
2019-04-21T04:31:55.401Z,310.76
2019-04-21T04:32:57.484Z,310.42
2019-04-21T04:34:05.018Z,311.54
2019-04-21T04:35:03.890Z,311.15
2019-04-21T04:37:05.966Z,311.66
2019-04-21T04:38:03.670Z,311.67
2019-04-21T04:39:17.989Z,311.37
2019-04-21T04:41:09.665Z,311.13
2019-04-21T04:42:27.221Z,312.60
2019-04-21T04:43:07.930Z,311.43
2019-04-21T04:44:05.166Z,311.71
2019-04-21T04:46:03.805Z,311.73
2019-04-21T04:49:10.604Z,311.71
2019-04-21T04:51:16.947Z,310.45
2019-04-21T04:52:52.597Z,310.05
2019-04-21T04:53:54.476Z,310.82
2019-04-21T04:56:05.007Z,309.72
2019-04-21T04:57:10.005Z,310.36
2019-04-21T05:00:15.662Z,310.22
2019-04-21T05:01:28.791Z,310.59
2019-04-21T05:02:14.971Z,310.43
2019-04-21T05:03:01.435Z,310.58
2019-04-21T05:04:05.892Z,310.82
2019-04-21T05:06:18.682Z,310.25
2019-04-21T05:07:07.077Z,310.40
2019-04-21T05:08:19.727Z,310.25
2019-04-21T05:09:15.101Z,310.32
2019-04-21T05:10:00.043Z,309.17
2019-04-21T05:11:07.770Z,309.64
2019-04-21T05:11:55.295Z,309.36
2019-04-21T05:12:57.034Z,310.41
2019-04-21T05:14:59.263Z,309.56
2019-04-21T05:16:01.582Z,309.90
2019-04-21T05:17:03.937Z,310.06
2019-04-21T05:18:01.155Z,309.71
2019-04-21T05:21:04.228Z,309.45
2019-04-21T05:21:55.484Z,310.01
2019-04-21T05:22:53.209Z,310.42
2019-04-21T05:23:51.036Z,310.61
2019-04-21T05:24:49.264Z,309.60
2019-04-21T05:25:48.116Z,309.68
2019-04-21T05:26:47.906Z,309.78
2019-04-21T05:27:47.348Z,309.66
2019-04-21T05:28:44.690Z,309.53
2019-04-21T05:29:53.934Z,310.06
2019-04-21T05:30:55.345Z,309.16
2019-04-21T05:32:07.861Z,309.50
2019-04-21T05:32:52.540Z,309.55
2019-04-21T05:33:57.658Z,309.74
2019-04-21T05:34:50.886Z,310.11
2019-04-21T05:35:49.295Z,309.67
2019-04-21T05:36:52.343Z,309.40
2019-04-21T05:37:50.395Z,309.88
2019-04-21T05:38:50.278Z,309.35
2019-04-21T05:39:49.278Z,309.34
2019-04-21T05:40:46.025Z,310.31
2019-04-21T05:41:41.357Z,309.83
2019-04-21T05:42:45.559Z,310.19
2019-04-21T05:43:54.127Z,310.24
2019-04-21T05:44:58.806Z,309.39
2019-04-21T05:45:53.314Z,310.07
2019-04-21T05:47:05.565Z,309.97
2019-04-21T05:47:57.916Z,309.40
2019-04-21T05:48:53.130Z,309.64
2019-04-21T05:49:50.946Z,309.74
2019-04-21T05:50:52.263Z,310.34
2019-04-21T05:51:44.317Z,309.73
2019-04-21T05:52:45.972Z,309.32
2019-04-21T05:54:03.092Z,309.66
2019-04-21T05:54:57.290Z,309.72
2019-04-21T05:56:50.563Z,310.29
2019-04-21T05:57:46.704Z,309.66
2019-04-21T05:58:49.696Z,309.78
2019-04-21T05:59:49.868Z,308.86
2019-04-21T06:01:06.473Z,309.96
2019-04-21T06:01:57.258Z,310.31
2019-04-21T06:02:59.422Z,310.05
2019-04-21T06:03:57.047Z,309.50
2019-04-21T06:06:00.444Z,309.80
2019-04-21T06:06:56.794Z,310.08
2019-04-21T06:07:52.509Z,310.13
2019-04-21T06:08:49.696Z,309.95
2019-04-21T06:09:56.885Z,310.16
2019-04-21T06:10:55.578Z,309.94
2019-04-21T06:11:51.404Z,310.04
2019-04-21T06:13:03.645Z,309.70
2019-04-21T06:13:55.561Z,309.98
2019-04-21T06:14:55.856Z,309.47
2019-04-21T06:16:55.597Z,309.28
2019-04-21T06:17:57.859Z,308.34
2019-04-21T06:19:00.935Z,309.06
2019-04-21T06:19:55.871Z,308.93
2019-04-21T06:20:54.576Z,308.75
2019-04-21T06:21:55.736Z,308.92
2019-04-21T06:22:52.029Z,308.99
2019-04-21T06:23:50.131Z,308.87
2019-04-21T06:25:21.694Z,308.81
2019-04-21T06:27:08.217Z,308.87
2019-04-21T06:27:52.665Z,309.35
2019-04-21T06:28:50.101Z,309.74
2019-04-21T06:29:54.656Z,309.36
2019-04-21T06:31:00.493Z,308.68
2019-04-21T06:32:58.352Z,309.19
2019-04-21T06:33:50.696Z,307.93
2019-04-21T06:36:21.587Z,309.00
2019-04-21T06:36:57.289Z,309.30
2019-04-21T06:37:52.254Z,309.36
2019-04-21T06:39:04.734Z,308.74
2019-04-21T06:40:09.363Z,308.55
2019-04-21T06:41:00.437Z,309.46
2019-04-21T06:41:49.150Z,309.54
2019-04-21T06:43:07.912Z,308.74
2019-04-21T06:45:54.004Z,308.67
2019-04-21T06:46:55.142Z,308.62
2019-04-21T06:47:57.979Z,309.02
2019-04-21T06:48:55.432Z,308.46
2019-04-21T06:49:50.877Z,309.29
2019-04-21T06:50:52.433Z,308.79
2019-04-21T06:51:54.521Z,308.43
2019-04-21T06:53:01.112Z,309.19
2019-04-21T06:53:59.368Z,308.39
2019-04-21T06:54:57.256Z,308.56
2019-04-21T06:55:57.477Z,308.69
2019-04-21T06:56:52.320Z,308.73
2019-04-21T06:57:51.921Z,308.52
2019-04-21T06:58:51.780Z,309.67
2019-04-21T06:59:54.224Z,308.22
2019-04-21T07:00:47.705Z,308.41
2019-04-21T07:02:06.950Z,308.62
2019-04-21T07:03:01.191Z,308.96
2019-04-21T07:04:03.133Z,308.43
2019-04-21T07:04:54.763Z,309.41
2019-04-21T07:05:57.281Z,308.73
2019-04-21T07:06:54.654Z,309.15
2019-04-21T07:08:10.962Z,308.80
2019-04-21T07:09:02.492Z,308.01
2019-04-21T07:09:58.500Z,308.92
2019-04-21T07:10:51.702Z,308.30
2019-04-21T07:11:49.050Z,308.56
2019-04-21T07:12:53.994Z,308.57
2019-04-21T07:13:44.034Z,308.19
2019-04-21T07:14:52.793Z,308.84
2019-04-21T07:15:53.811Z,308.10
2019-04-21T07:17:54.280Z,308.20
2019-04-21T07:19:00.067Z,309.04
2019-04-21T07:19:57.160Z,307.99
2019-04-21T07:20:53.255Z,308.11
2019-04-21T07:21:50.987Z,308.74
2019-04-21T07:22:56.837Z,308.27
2019-04-21T07:23:55.152Z,308.93
2019-04-21T07:24:48.219Z,308.38
2019-04-21T07:25:53.229Z,308.71
2019-04-21T07:26:56.872Z,307.98
2019-04-21T07:27:52.302Z,308.86
2019-04-21T07:28:56.271Z,308.20
2019-04-21T07:29:53.391Z,308.60
2019-04-21T07:30:51.543Z,308.32
2019-04-21T07:31:59.242Z,308.20
2019-04-21T07:32:58.089Z,308.17
2019-04-21T07:34:52.173Z,308.29
2019-04-21T07:35:50.904Z,308.22
2019-04-21T07:37:53.652Z,309.06
2019-04-21T07:38:50.379Z,308.47
2019-04-21T07:39:49.930Z,308.82
2019-04-21T07:40:45.492Z,308.58
2019-04-21T07:41:48.412Z,308.94
2019-04-21T07:42:56.128Z,308.02
2019-04-21T07:43:44.045Z,308.14
2019-04-21T07:44:44.799Z,308.45
2019-04-21T07:45:47.249Z,308.43
2019-04-21T07:46:47.186Z,308.22
2019-04-21T07:47:53.145Z,308.96
2019-04-21T07:48:49.501Z,308.66
2019-04-21T07:49:54.962Z,308.16
2019-04-21T07:50:51.429Z,308.65
2019-04-21T07:51:54.910Z,308.37
2019-04-21T07:52:53.597Z,308.09
2019-04-21T07:53:58.379Z,308.60
2019-04-21T07:54:57.373Z,308.29
2019-04-21T07:55:30.195Z,308.22
2019-04-21T07:56:34.938Z,308.27
2019-04-21T07:57:45.680Z,307.67
2019-04-21T07:58:53.880Z,308.20
2019-04-21T07:59:56.547Z,308.00
2019-04-21T08:01:11.919Z,309.11
2019-04-21T08:01:50.860Z,309.94
2019-04-21T08:02:52.405Z,308.01
2019-04-21T08:05:53.683Z,308.70
2019-04-21T08:07:51.880Z,309.28
2019-04-21T08:08:50.686Z,308.76
2019-04-21T08:09:47.281Z,308.80
2019-04-21T08:10:45.284Z,309.19
2019-04-21T08:11:41.628Z,308.63
2019-04-21T08:12:49.683Z,309.05
2019-04-21T08:14:01.081Z,309.11
2019-04-21T08:14:50.798Z,307.64
2019-04-21T08:16:07.726Z,307.88
2019-04-21T08:16:51.170Z,308.79
2019-04-21T08:17:48.038Z,308.29
2019-04-21T08:18:50.217Z,308.11
2019-04-21T08:19:42.565Z,308.54
2019-04-21T08:20:47.780Z,307.14
2019-04-21T08:21:53.062Z,307.86
2019-04-21T08:22:51.701Z,306.79
2019-04-21T08:23:50.239Z,307.27
2019-04-21T08:24:52.126Z,307.50
2019-04-21T08:26:04.839Z,306.82
2019-04-21T08:26:52.577Z,307.34
2019-04-21T08:28:56.471Z,307.32
2019-04-21T08:29:52.182Z,307.15
2019-04-21T08:30:47.719Z,306.85
2019-04-21T08:31:56.170Z,306.73
2019-04-21T08:33:14.227Z,306.98
2019-04-21T08:33:56.107Z,306.85
2019-04-21T08:34:57.368Z,306.58
2019-04-21T08:36:51.590Z,305.72
2019-04-21T08:37:48.361Z,306.99
2019-04-21T08:38:49.608Z,306.68
2019-04-21T08:39:58.041Z,306.84
2019-04-21T08:40:49.237Z,306.78
2019-04-21T08:41:49.651Z,306.51
2019-04-21T08:42:53.987Z,306.02
2019-04-21T08:43:51.983Z,305.62
2019-04-21T08:44:52.964Z,306.40
2019-04-21T08:45:52.677Z,306.36
2019-04-21T08:46:54.701Z,305.36
2019-04-21T08:48:49.470Z,306.09
2019-04-21T08:49:48.633Z,305.83
2019-04-21T08:50:52.575Z,306.21
2019-04-21T08:51:56.636Z,306.19
2019-04-21T08:52:56.618Z,306.55
2019-04-21T08:54:49.663Z,305.36
2019-04-21T08:56:00.572Z,306.23
2019-04-21T08:56:46.727Z,305.93
2019-04-21T08:58:00.744Z,305.42
2019-04-21T08:58:52.911Z,306.30
2019-04-21T08:59:56.859Z,305.38
2019-04-21T09:00:47.112Z,305.65
2019-04-21T09:01:48.951Z,305.42
2019-04-21T09:02:47.347Z,306.36
2019-04-21T09:03:44.032Z,306.49
2019-04-21T09:04:48.021Z,305.79
2019-04-21T09:05:49.415Z,304.29
2019-04-21T09:06:58.684Z,305.87
2019-04-21T09:07:52.519Z,306.52
2019-04-21T09:08:46.082Z,305.36
2019-04-21T09:09:47.567Z,305.55
2019-04-21T09:10:47.054Z,306.82
2019-04-21T09:11:49.892Z,305.40
2019-04-21T09:12:46.692Z,304.82
2019-04-21T09:13:49.043Z,305.77
2019-04-21T09:14:52.757Z,305.45
2019-04-21T09:15:41.669Z,305.63
2019-04-21T09:16:41.095Z,306.27
2019-04-21T09:17:41.141Z,305.96
2019-04-21T09:18:40.422Z,305.88
2019-04-21T09:20:07.792Z,305.48
2019-04-21T09:21:49.970Z,304.42
2019-04-21T09:22:47.788Z,305.60
2019-04-21T09:23:44.914Z,306.07
2019-04-21T09:24:46.898Z,306.27
2019-04-21T09:25:47.300Z,306.28
2019-04-21T09:26:46.498Z,306.21
2019-04-21T09:27:42.138Z,306.05
2019-04-21T09:28:39.422Z,305.46
2019-04-21T09:29:36.744Z,304.51
2019-04-21T09:30:33.909Z,306.35
2019-04-21T09:31:33.791Z,305.63
2019-04-21T09:32:31.389Z,305.62
2019-04-21T09:33:33.444Z,305.74
2019-04-21T09:34:33.209Z,304.95
2019-04-21T09:35:29.079Z,306.25
2019-04-21T09:36:36.134Z,305.39
2019-04-21T09:37:39.561Z,305.46
2019-04-21T09:38:35.117Z,305.49
2019-04-21T09:39:30.061Z,305.90
2019-04-21T09:40:33.623Z,306.33
2019-04-21T09:41:29.625Z,305.60
2019-04-21T09:42:34.813Z,305.83
2019-04-21T09:43:37.700Z,305.25
2019-04-21T09:44:33.398Z,305.33
2019-04-21T09:45:28.604Z,305.80
2019-04-21T09:46:27.607Z,305.64
2019-04-21T09:47:35.147Z,304.62
2019-04-21T09:48:30.630Z,305.06
2019-04-21T09:49:31.277Z,305.60
2019-04-21T09:50:27.732Z,305.03
2019-04-21T09:51:27.810Z,305.95
2019-04-21T09:52:37.139Z,304.51
2019-04-21T09:53:33.220Z,306.19
2019-04-21T09:54:31.531Z,304.45
2019-04-21T09:55:36.474Z,304.64
2019-04-21T09:56:37.434Z,304.70
2019-04-21T09:57:38.260Z,304.32
2019-04-21T09:58:34.598Z,304.13
2019-04-21T09:59:33.518Z,305.52
2019-04-21T10:00:31.443Z,305.10
2019-04-21T10:01:38.270Z,305.82
2019-04-21T10:02:42.847Z,306.22
2019-04-21T10:03:37.128Z,304.69
2019-04-21T10:04:28.896Z,305.01
2019-04-21T10:05:27.335Z,305.82
2019-04-21T10:06:28.238Z,304.86
2019-04-21T10:07:33.384Z,303.45
2019-04-21T10:08:27.535Z,306.09
2019-04-21T10:09:26.527Z,304.92
2019-04-21T10:10:27.582Z,303.39
2019-04-21T10:11:26.925Z,304.39
2019-04-21T10:12:26.492Z,302.29
2019-04-21T10:13:27.429Z,304.51
2019-04-21T10:14:26.515Z,303.55
2019-04-21T10:15:28.241Z,304.89
2019-04-21T10:16:26.439Z,303.69
2019-04-21T10:17:27.549Z,304.66
2019-04-21T10:18:29.372Z,305.04
2019-04-21T10:19:27.509Z,303.79
2019-04-21T10:20:26.567Z,304.10
2019-04-21T10:21:27.727Z,304.65
2019-04-21T10:22:26.691Z,305.54
2019-04-21T10:23:27.431Z,305.77
2019-04-21T10:24:26.481Z,304.79
2019-04-21T10:25:26.375Z,302.94
2019-04-21T10:26:26.465Z,302.71
2019-04-21T10:27:27.322Z,305.08
2019-04-21T10:28:26.864Z,305.13
2019-04-21T10:29:29.523Z,305.07
2019-04-21T10:30:28.617Z,305.48
2019-04-21T10:31:27.020Z,305.09
2019-04-21T10:32:26.266Z,305.45
2019-04-21T10:33:26.346Z,304.02
2019-04-21T10:34:27.283Z,306.03
2019-04-21T10:35:26.348Z,304.40
2019-04-21T10:36:26.862Z,304.60
2019-04-21T10:37:38.857Z,305.15
2019-04-21T10:38:36.552Z,305.31
2019-04-21T10:39:27.416Z,305.31
2019-04-21T10:40:27.496Z,305.34
2019-04-21T10:41:27.479Z,304.72
2019-04-21T10:42:27.010Z,304.76
2019-04-21T10:43:27.478Z,305.19
2019-04-21T10:44:27.339Z,305.50
2019-04-21T10:45:26.163Z,306.03
2019-04-21T10:46:26.684Z,303.23
2019-04-21T10:47:26.965Z,304.61
2019-04-21T10:48:26.104Z,305.99
2019-04-21T10:49:26.606Z,305.46
2019-04-21T10:50:26.818Z,302.95
2019-04-21T10:51:26.086Z,304.52
2019-04-21T10:52:29.251Z,305.65
2019-04-21T10:53:27.061Z,305.20
2019-04-21T10:54:27.284Z,305.74
2019-04-21T10:55:45.011Z,304.91
2019-04-21T10:56:34.446Z,305.02
2019-04-21T10:57:28.331Z,304.81
2019-04-21T10:58:36.275Z,305.23
2019-04-21T10:59:35.311Z,306.07
2019-04-21T11:00:26.041Z,303.59
2019-04-21T11:01:27.199Z,304.50
2019-04-21T11:02:26.412Z,304.77
2019-04-21T11:03:26.849Z,301.48
2019-04-21T11:04:32.374Z,302.69
2019-04-21T11:05:27.039Z,304.33
2019-04-21T11:06:26.504Z,303.11
2019-04-21T11:07:31.375Z,304.93
2019-04-21T11:09:37.921Z,297.27
2019-04-21T11:10:36.521Z,304.73
2019-04-21T11:11:37.637Z,301.97
2019-04-21T11:12:39.100Z,304.03
2019-04-21T11:13:36.958Z,303.00
2019-04-21T11:14:36.483Z,303.94
2019-04-21T11:15:37.284Z,305.11
2019-04-21T11:16:37.170Z,304.44
2019-04-21T11:17:36.531Z,305.89
2019-04-21T11:18:37.749Z,304.54
2019-04-21T11:19:36.882Z,305.08
2019-04-21T11:20:37.226Z,305.10
2019-04-21T11:21:40.833Z,304.92
2019-04-21T11:22:38.194Z,306.51
2019-04-21T11:23:37.483Z,302.86
2019-04-21T11:24:36.712Z,302.66
2019-04-21T11:25:37.603Z,303.35
2019-04-21T11:26:37.825Z,306.35
2019-04-21T11:28:48.951Z,297.94
2019-04-21T11:29:48.037Z,305.68
2019-04-21T11:30:48.754Z,304.89
2019-04-21T11:31:49.338Z,305.39
2019-04-21T11:32:49.437Z,305.72
2019-04-21T11:33:53.562Z,306.12
2019-04-21T11:34:49.060Z,304.80
2019-04-21T11:35:49.461Z,304.59
2019-04-21T11:36:48.121Z,306.73
2019-04-21T11:37:48.342Z,306.40
2019-04-21T11:39:08.634Z,305.79
2019-04-21T11:39:55.313Z,302.75
2019-04-21T11:40:49.814Z,304.90
2019-04-21T11:41:48.016Z,304.43
2019-04-21T11:42:48.169Z,305.21
2019-04-21T11:43:48.860Z,304.24
2019-04-21T11:44:49.271Z,304.18
2019-04-21T11:45:48.528Z,304.77
2019-04-21T11:46:48.873Z,304.11
2019-04-21T11:47:48.246Z,303.98
2019-04-21T11:48:48.336Z,302.38
2019-04-21T11:49:49.258Z,303.35
2019-04-21T11:50:48.827Z,305.02
2019-04-21T11:51:48.967Z,304.80
2019-04-21T11:52:49.229Z,305.17
2019-04-21T11:53:48.797Z,304.04
2019-04-21T11:54:48.665Z,304.74
2019-04-21T11:55:49.943Z,303.46
2019-04-21T11:56:48.549Z,305.25
2019-04-21T11:57:49.791Z,305.24
2019-04-21T11:58:47.903Z,304.71
2019-04-21T11:59:47.994Z,304.40
2019-04-21T12:00:47.707Z,302.38
2019-04-21T12:01:47.743Z,303.98
2019-04-21T12:02:47.786Z,305.25
2019-04-21T12:03:47.667Z,305.41
2019-04-21T12:04:47.709Z,305.27
2019-04-21T12:05:47.793Z,304.36
2019-04-21T12:06:49.205Z,304.20
2019-04-21T12:07:47.627Z,305.20
2019-04-21T12:08:50.986Z,305.47
2019-04-21T12:09:48.629Z,303.05
2019-04-21T12:10:47.597Z,303.52
2019-04-21T12:11:47.569Z,304.82
2019-04-21T12:12:47.580Z,304.13
2019-04-21T12:13:47.941Z,304.70
2019-04-21T12:14:48.025Z,305.25
2019-04-21T12:15:47.580Z,305.91
2019-04-21T12:16:48.685Z,304.21
2019-04-21T12:17:48.087Z,305.37
2019-04-21T12:18:47.530Z,307.61
2019-04-21T12:19:48.526Z,308.65
2019-04-21T12:20:47.520Z,306.27
2019-04-21T12:22:00.399Z,307.54
2019-04-21T12:22:49.441Z,307.69
2019-04-21T12:23:48.128Z,308.60
2019-04-21T12:24:47.456Z,305.93
2019-04-21T12:25:47.474Z,308.10
2019-04-21T12:26:47.437Z,307.28
2019-04-21T12:27:48.009Z,304.92
2019-04-21T12:28:47.915Z,305.75
2019-04-21T12:29:48.004Z,305.72
2019-04-21T12:30:47.460Z,301.90
2019-04-21T12:31:47.639Z,302.80
2019-04-21T12:32:48.595Z,300.25
2019-04-21T12:33:47.827Z,303.58
2019-04-21T12:34:50.099Z,299.33
2019-04-21T12:35:48.189Z,298.30
2019-04-21T12:36:48.625Z,300.68
2019-04-21T12:37:48.890Z,298.30
2019-04-21T12:38:53.915Z,297.29
2019-04-21T12:39:48.628Z,299.92
2019-04-21T12:40:48.482Z,299.31
2019-04-21T12:41:48.738Z,296.94
2019-04-21T12:42:48.320Z,292.39
2019-04-21T12:43:48.598Z,294.33
2019-04-21T12:44:47.528Z,300.00
2019-04-21T12:45:47.241Z,296.01
2019-04-21T12:46:47.726Z,296.30
2019-04-21T12:47:49.952Z,294.44
2019-04-21T12:48:47.260Z,294.85
2019-04-21T12:49:47.789Z,296.89
2019-04-21T12:50:47.929Z,294.41
2019-04-21T12:51:48.050Z,296.69
2019-04-21T12:52:47.447Z,290.50
2019-04-21T12:53:47.768Z,295.28
2019-04-21T12:54:47.993Z,290.10
2019-04-21T12:55:48.055Z,291.36
2019-04-21T12:56:47.677Z,285.01
2019-04-21T12:57:47.680Z,291.50
2019-04-21T12:58:47.279Z,288.48
2019-04-21T12:59:47.127Z,289.99
2019-04-21T13:00:47.273Z,292.18
2019-04-21T13:01:47.115Z,291.94
2019-04-21T13:02:47.745Z,293.74
2019-04-21T13:03:47.978Z,294.23
2019-04-21T13:04:49.299Z,292.67
2019-04-21T13:05:47.552Z,291.64
2019-04-21T13:06:47.599Z,291.05
2019-04-21T13:07:47.053Z,292.08
2019-04-21T13:08:55.652Z,287.75
2019-04-21T13:09:48.436Z,291.98
2019-04-21T13:10:48.450Z,295.56
2019-04-21T13:11:47.051Z,289.86
2019-04-21T13:12:47.991Z,292.43
2019-04-21T13:13:48.097Z,292.02
2019-04-21T13:14:47.495Z,295.80
2019-04-21T13:15:47.537Z,290.66
2019-04-21T13:16:47.780Z,289.93
2019-04-21T13:17:47.409Z,289.48
2019-04-21T13:18:47.152Z,289.26
2019-04-21T13:19:47.305Z,291.35
2019-04-21T13:20:46.950Z,291.43
2019-04-21T13:21:47.932Z,291.67
2019-04-21T13:22:48.198Z,290.39
2019-04-21T13:23:47.242Z,288.07
2019-04-21T13:24:47.582Z,291.87
2019-04-21T13:25:47.896Z,287.05
2019-04-21T13:26:52.375Z,289.43
2019-04-21T13:27:49.220Z,288.25
2019-04-21T13:28:47.944Z,290.60
2019-04-21T13:29:48.197Z,289.14
2019-04-21T13:30:46.849Z,286.93
2019-04-21T13:31:47.983Z,287.23
2019-04-21T13:32:47.063Z,281.39
2019-04-21T13:33:48.031Z,286.56
2019-04-21T13:34:47.815Z,289.95
2019-04-21T13:35:46.865Z,287.19
2019-04-21T13:36:47.688Z,287.41
2019-04-21T13:37:49.316Z,288.33
2019-04-21T13:39:22.122Z,285.89
2019-04-21T13:40:07.556Z,282.12
2019-04-21T13:41:03.875Z,287.41